createdAt,value
2019-02-24T00:02:40.773Z,78.3
2019-02-24T00:07:42.079Z,78.3
2019-02-24T00:12:28.031Z,78.2
2019-02-24T00:17:28.074Z,78.0
2019-02-24T00:22:27.709Z,78.0
2019-02-24T00:27:27.603Z,78.0
2019-02-24T00:32:28.863Z,78.0
2019-02-24T00:37:29.409Z,78.0
2019-02-24T00:42:27.787Z,77.9
2019-02-24T00:47:28.023Z,78.0
2019-02-24T00:52:28.040Z,77.9
2019-02-24T00:57:28.152Z,78.0
2019-02-24T01:02:28.494Z,78.0
2019-02-24T01:07:29.407Z,77.9
2019-02-24T01:12:29.006Z,77.9
2019-02-24T01:17:28.393Z,77.9
2019-02-24T01:22:27.971Z,77.9
2019-02-24T01:27:28.296Z,78.1
2019-02-24T01:32:27.286Z,77.8
2019-02-24T01:37:27.761Z,77.8
2019-02-24T01:42:27.591Z,77.8
2019-02-24T01:47:28.771Z,77.8
2019-02-24T01:52:27.614Z,77.8
2019-02-24T01:57:27.893Z,77.8
2019-02-24T02:02:28.798Z,77.7
2019-02-24T02:07:28.590Z,77.5
2019-02-24T02:12:28.219Z,77.5
2019-02-24T02:17:29.754Z,77.4
2019-02-24T02:22:27.826Z,77.6
2019-02-24T02:27:28.741Z,77.6
2019-02-24T02:32:28.556Z,77.4
2019-02-24T02:37:27.646Z,77.4
2019-02-24T02:42:28.354Z,77.4
2019-02-24T02:47:28.135Z,77.4
2019-02-24T02:52:29.044Z,77.4
2019-02-24T02:57:28.381Z,77.3
2019-02-24T03:02:28.039Z,77.3
2019-02-24T03:07:28.380Z,77.3
2019-02-24T03:12:28.471Z,77.4
2019-02-24T03:17:28.080Z,77.4
2019-02-24T03:22:29.004Z,77.4
2019-02-24T03:27:27.810Z,77.3
2019-02-24T03:32:28.711Z,77.2
2019-02-24T03:37:28.462Z,77.2
2019-02-24T03:42:28.525Z,77.2
2019-02-24T03:47:29.947Z,77.2
2019-02-24T03:52:27.784Z,77.2
2019-02-24T03:57:29.342Z,77.0
2019-02-24T04:02:28.646Z,76.7
2019-02-24T04:07:29.328Z,76.5
2019-02-24T04:12:28.283Z,76.4
2019-02-24T04:17:28.888Z,76.3
2019-02-24T04:22:28.517Z,76.1
2019-02-24T04:27:27.993Z,76.0
2019-02-24T04:32:28.310Z,75.8
2019-02-24T04:37:28.565Z,75.8
2019-02-24T04:42:28.092Z,75.6
2019-02-24T04:47:29.545Z,75.5
2019-02-24T04:52:27.769Z,75.7
2019-02-24T04:57:28.205Z,75.7
2019-02-24T05:02:28.150Z,75.6
2019-02-24T05:07:29.224Z,75.8
2019-02-24T05:12:28.301Z,75.8
2019-02-24T05:17:28.705Z,75.8
2019-02-24T05:22:27.772Z,75.8
2019-02-24T05:27:28.646Z,63.1
2019-02-24T05:32:28.716Z,76.0
2019-02-24T05:37:28.184Z,76.0
2019-02-24T05:42:28.025Z,76.0
2019-02-24T05:47:33.152Z,76.1
2019-02-24T05:52:28.588Z,76.1
2019-02-24T05:57:28.428Z,76.2
2019-02-24T06:02:28.155Z,76.3
2019-02-24T06:07:28.986Z,76.3
2019-02-24T06:12:28.421Z,76.2
2019-02-24T06:17:29.700Z,76.3
2019-02-24T06:22:28.768Z,76.3
2019-02-24T06:27:28.833Z,76.2
2019-02-24T06:32:29.242Z,76.3
2019-02-24T06:37:28.743Z,76.2
2019-02-24T06:42:29.088Z,76.2
2019-02-24T06:47:27.976Z,76.1
2019-02-24T06:52:29.038Z,76.1
2019-02-24T06:57:28.532Z,75.8
2019-02-24T07:02:28.727Z,75.5
2019-02-24T07:07:28.659Z,75.2
2019-02-24T07:12:28.657Z,75.2
2019-02-24T07:17:28.940Z,75.1
2019-02-24T07:22:28.868Z,74.8
2019-02-24T07:27:29.829Z,74.7
2019-02-24T07:32:28.836Z,74.6
2019-02-24T07:37:29.120Z,74.8
2019-02-24T07:42:29.278Z,74.8
2019-02-24T07:47:28.399Z,74.7
2019-02-24T07:52:28.610Z,74.6
2019-02-24T07:57:29.166Z,74.8
2019-02-24T08:02:29.162Z,74.8
2019-02-24T08:07:28.574Z,75.0
2019-02-24T08:12:28.608Z,75.0
2019-02-24T08:17:28.355Z,74.9
2019-02-24T08:22:28.673Z,75.2
2019-02-24T08:27:29.083Z,75.2
2019-02-24T08:32:28.599Z,75.5
2019-02-24T08:37:28.902Z,75.3
2019-02-24T08:42:28.072Z,75.2
2019-02-24T08:47:29.181Z,76.1
2019-02-24T08:52:30.144Z,76.1
2019-02-24T08:57:28.735Z,76.2
2019-02-24T09:02:28.874Z,76.3
2019-02-24T09:07:28.333Z,76.5
2019-02-24T09:12:28.333Z,76.5
2019-02-24T09:17:28.373Z,76.2
2019-02-24T09:22:28.577Z,76.5
2019-02-24T09:27:29.491Z,77.1
2019-02-24T09:32:28.917Z,77.0
2019-02-24T09:37:29.123Z,77.4
2019-02-24T09:42:28.547Z,77.9
2019-02-24T09:47:28.641Z,78.3
2019-02-24T09:52:29.110Z,78.3
2019-02-24T09:57:29.355Z,78.3
2019-02-24T10:02:28.704Z,78.2
2019-02-24T10:07:29.165Z,78.6
2019-02-24T10:12:29.512Z,79.2
2019-02-24T10:17:30.820Z,79.6
2019-02-24T10:22:28.276Z,79.4
2019-02-24T10:27:28.638Z,79.5
2019-02-24T10:32:28.795Z,79.6
2019-02-24T10:37:30.087Z,79.6
2019-02-24T10:42:28.141Z,80.0
2019-02-24T10:47:28.723Z,80.1
2019-02-24T10:52:27.849Z,80.1
2019-02-24T10:57:28.360Z,80.6
2019-02-24T11:02:29.861Z,81.0
2019-02-24T11:07:28.848Z,81.4
2019-02-24T11:12:29.110Z,81.4
2019-02-24T11:17:28.965Z,81.6
2019-02-24T11:22:30.101Z,81.6
2019-02-24T11:27:28.575Z,82.0
2019-02-24T11:32:29.420Z,82.1
2019-02-24T11:37:28.460Z,82.2
2019-02-24T11:42:28.763Z,82.3
2019-02-24T11:47:29.197Z,82.8
2019-02-24T11:52:28.507Z,82.5
2019-02-24T11:57:29.555Z,82.4
2019-02-24T12:02:34.939Z,82.7
2019-02-24T12:07:28.465Z,83.6
2019-02-24T12:12:28.897Z,83.3
2019-02-24T12:17:29.381Z,83.2
2019-02-24T12:22:28.187Z,83.2
2019-02-24T12:27:29.004Z,84.7
2019-02-24T12:32:28.312Z,84.7
2019-02-24T12:37:27.876Z,84.9
2019-02-24T12:42:28.312Z,85.2
2019-02-24T12:47:29.115Z,85.3
2019-02-24T12:52:29.009Z,85.6
2019-02-24T12:57:29.463Z,85.8
2019-02-24T13:02:28.760Z,86.3
2019-02-24T13:07:29.826Z,85.8
2019-02-24T13:12:28.323Z,86.6
2019-02-24T13:17:28.617Z,86.6
2019-02-24T13:22:28.604Z,86.8
2019-02-24T13:27:28.964Z,87.2
2019-02-24T13:32:29.860Z,87.3
2019-02-24T13:37:31.220Z,87.6
2019-02-24T13:42:29.183Z,87.8
2019-02-24T13:47:28.671Z,88.2
2019-02-24T13:52:29.420Z,88.4
2019-02-24T13:57:29.133Z,88.5
2019-02-24T14:02:28.041Z,88.4
2019-02-24T14:07:31.644Z,88.1
2019-02-24T14:12:29.519Z,87.8
2019-02-24T14:17:30.513Z,87.3
2019-02-24T14:22:29.578Z,86.2
2019-02-24T14:27:28.846Z,82.9
2019-02-24T14:32:33.473Z,82.9
2019-02-24T14:37:28.694Z,81.3
2019-02-24T14:42:28.581Z,77.4
2019-02-24T14:47:28.484Z,77.4
2019-02-24T14:52:28.657Z,75.5
2019-02-24T14:57:30.616Z,74.6
2019-02-24T15:02:29.212Z,72.5
2019-02-24T15:07:28.382Z,71.4
2019-02-24T15:12:30.300Z,70.5
2019-02-24T15:17:28.964Z,69.1
2019-02-24T15:22:28.456Z,68.4
2019-02-24T15:27:28.662Z,68.4
2019-02-24T15:32:28.976Z,69.2
2019-02-24T15:37:28.145Z,69.4
2019-02-24T15:42:28.328Z,69.0
2019-02-24T15:47:28.826Z,68.3
2019-02-24T15:52:29.030Z,68.2
2019-02-24T15:57:28.612Z,68.6
2019-02-24T16:02:28.244Z,68.6
2019-02-24T16:07:29.136Z,68.9
2019-02-24T16:12:28.810Z,69.3
2019-02-24T16:17:28.939Z,70.0
2019-02-24T16:22:29.561Z,70.2
2019-02-24T16:27:29.030Z,71.3
2019-02-24T16:32:28.519Z,72.0
2019-02-24T16:37:28.660Z,73.9
2019-02-24T16:42:29.817Z,73.9
2019-02-24T16:47:29.007Z,75.1
2019-02-24T16:52:28.850Z,77.0
2019-02-24T16:57:29.268Z,78.8
2019-02-24T17:02:29.504Z,81.6
2019-02-24T17:07:28.623Z,87.2
2019-02-24T17:12:27.982Z,87.2
2019-02-24T17:17:29.306Z,88.1
2019-02-24T17:22:28.617Z,88.2
2019-02-24T17:27:30.448Z,88.1
2019-02-24T17:32:28.838Z,87.8
2019-02-24T17:37:28.957Z,87.1
2019-02-24T17:42:28.461Z,86.7
2019-02-24T17:47:28.287Z,86.3
2019-02-24T17:52:28.578Z,85.8
2019-02-24T17:57:28.237Z,85.5
2019-02-24T18:02:27.860Z,84.7
2019-02-24T18:07:29.380Z,84.0
2019-02-24T18:12:27.836Z,84.0
2019-02-24T18:17:28.406Z,83.4
2019-02-24T18:22:28.430Z,83.2
2019-02-24T18:27:27.657Z,82.8
2019-02-24T18:32:28.411Z,82.5
2019-02-24T18:37:28.562Z,82.3
2019-02-24T18:42:28.129Z,81.9
2019-02-24T18:47:28.663Z,81.2
2019-02-24T18:52:28.611Z,81.2
2019-02-24T18:57:28.638Z,81.1
2019-02-24T19:02:27.969Z,80.9
2019-02-24T19:07:28.718Z,80.8
2019-02-24T19:12:28.019Z,80.7
2019-02-24T19:17:28.190Z,80.3
2019-02-24T19:22:28.617Z,80.3
2019-02-24T19:27:28.720Z,80.1
2019-02-24T19:32:28.314Z,79.8
2019-02-24T19:37:27.905Z,79.8
2019-02-24T19:42:28.120Z,79.8
2019-02-24T19:47:28.908Z,79.9
2019-02-24T19:52:28.845Z,79.8
2019-02-24T19:57:28.658Z,79.8
2019-02-24T20:02:28.257Z,79.7
2019-02-24T20:07:28.817Z,79.5
2019-02-24T20:12:28.180Z,79.2
2019-02-24T20:17:28.315Z,79.3
2019-02-24T20:22:27.812Z,78.8
2019-02-24T20:27:29.086Z,78.8
2019-02-24T20:32:28.124Z,78.9
2019-02-24T20:37:28.999Z,78.9
2019-02-24T20:42:29.531Z,78.9
2019-02-24T20:47:29.119Z,78.8
2019-02-24T20:52:29.633Z,78.8
2019-02-24T20:57:28.785Z,78.6
2019-02-24T21:02:28.334Z,78.4
2019-02-24T21:07:28.520Z,78.4
2019-02-24T21:12:28.717Z,78.3
2019-02-24T21:17:29.272Z,78.2
2019-02-24T21:22:28.320Z,78.0
2019-02-24T21:27:28.005Z,78.1
2019-02-24T21:32:28.923Z,77.8
2019-02-24T21:37:29.839Z,77.6
2019-02-24T21:42:27.713Z,77.6
2019-02-24T21:47:28.417Z,77.6
2019-02-24T21:52:28.196Z,77.5
2019-02-24T21:57:28.103Z,77.6
2019-02-24T22:02:28.213Z,77.5
2019-02-24T22:07:28.052Z,77.4
2019-02-24T22:12:28.439Z,77.3
2019-02-24T22:17:28.269Z,77.3
2019-02-24T22:22:28.346Z,77.0
2019-02-24T22:27:27.797Z,77.0
2019-02-24T22:32:28.643Z,77.1
2019-02-24T22:37:29.411Z,77.0
2019-02-24T22:42:28.281Z,76.8
2019-02-24T22:47:28.613Z,76.8
2019-02-24T22:52:29.012Z,76.7
2019-02-24T22:57:28.538Z,76.7
2019-02-24T23:02:28.152Z,76.5
2019-02-24T23:07:27.956Z,76.7
2019-02-24T23:12:27.500Z,76.6
2019-02-24T23:23:06.228Z,76.1
2019-02-24T23:28:05.165Z,76.5
2019-02-24T23:33:05.522Z,76.7
2019-02-24T23:38:05.098Z,76.5
2019-02-24T23:43:05.463Z,76.3
2019-02-24T23:48:04.968Z,76.3
2019-02-24T23:53:04.926Z,76.0
2019-02-24T23:58:06.342Z,75.7
